createdAt,value
2018-10-03T00:01:52.800Z,97959.81
2018-10-03T00:04:20.444Z,97963.84
2018-10-03T00:06:48.132Z,97956.33
2018-10-03T00:09:15.833Z,97958.77
2018-10-03T00:11:43.461Z,97959.01
2018-10-03T00:14:11.111Z,97956.03
2018-10-03T00:16:38.750Z,97946.93
2018-10-03T00:19:06.391Z,97949.08
2018-10-03T00:21:34.110Z,97943.20
2018-10-03T00:24:01.737Z,97948.57
2018-10-03T00:26:29.661Z,97947.50
2018-10-03T00:28:57.293Z,97953.10
2018-10-03T00:31:25.157Z,97954.74
2018-10-03T00:33:52.795Z,97957.13
2018-10-03T00:36:20.443Z,97946.93
2018-10-03T00:38:48.082Z,97951.77
2018-10-03T00:41:15.718Z,97949.14
2018-10-03T00:43:43.409Z,97939.74
2018-10-03T00:46:11.046Z,97937.06
2018-10-03T00:48:38.669Z,97936.25
2018-10-03T00:51:06.305Z,97945.14
2018-10-03T00:53:34.140Z,97944.37
2018-10-03T00:56:01.781Z,97940.81
2018-10-03T00:58:29.429Z,97948.09
2018-10-03T01:00:57.098Z,97941.38
2018-10-03T01:03:24.758Z,97938.94
2018-10-03T01:05:52.388Z,97948.33
2018-10-03T01:08:20.036Z,97944.37
2018-10-03T01:10:47.676Z,97944.06
2018-10-03T01:13:15.331Z,97943.02
2018-10-03T01:15:42.977Z,97944.30
2018-10-03T01:18:10.633Z,97943.32
2018-10-03T01:20:38.284Z,97945.70
2018-10-03T01:23:05.966Z,97945.44
2018-10-03T01:25:33.584Z,97943.56
2018-10-03T01:28:01.262Z,97942.22
2018-10-03T01:30:28.880Z,97944.09
2018-10-03T01:32:56.514Z,97949.46
2018-10-03T01:35:24.184Z,97944.37
2018-10-03T01:37:51.813Z,97944.42
2018-10-03T01:40:19.428Z,97945.77
2018-10-03T01:42:47.061Z,97952.95
2018-10-03T01:45:14.702Z,97952.47
2018-10-03T01:47:42.327Z,97951.67
2018-10-03T01:50:09.976Z,97950.86
2018-10-03T01:52:37.613Z,97950.86
2018-10-03T01:55:05.305Z,97962.41
2018-10-03T01:57:32.981Z,97960.25
2018-10-03T02:00:00.640Z,97956.73
2018-10-03T02:02:28.265Z,97957.33
2018-10-03T02:04:55.930Z,97965.63
2018-10-03T02:07:23.575Z,97970.99
2018-10-03T02:09:51.250Z,97969.95
2018-10-03T02:12:18.884Z,97979.05
2018-10-03T02:14:46.572Z,97972.09
2018-10-03T02:17:14.223Z,97969.65
2018-10-03T02:19:41.857Z,97958.67
2018-10-03T02:22:09.574Z,97968.61
2018-10-03T02:24:37.217Z,97955.99
2018-10-03T02:27:04.849Z,97954.95
2018-10-03T02:29:32.505Z,97954.95
2018-10-03T02:32:00.166Z,97956.29
2018-10-03T02:34:27.802Z,97949.88
2018-10-03T02:36:55.543Z,97951.76
2018-10-03T02:39:23.241Z,97946.06
2018-10-03T02:41:50.869Z,97953.02
2018-10-03T02:44:18.501Z,97960.25
2018-10-03T02:46:46.142Z,97958.14
2018-10-03T02:49:13.821Z,97954.14
2018-10-03T02:51:41.481Z,97956.34
2018-10-03T02:54:09.175Z,97957.69
2018-10-03T02:56:36.804Z,97956.59
2018-10-03T02:59:04.477Z,97959.51
2018-10-03T03:01:32.155Z,97949.38
2018-10-03T03:03:59.767Z,97951.22
2018-10-03T03:06:27.440Z,97954.14
2018-10-03T03:08:55.104Z,97952.86
2018-10-03T03:11:22.720Z,97948.83
2018-10-03T03:13:50.332Z,97948.59
2018-10-03T03:16:17.953Z,97950.17
2018-10-03T03:18:45.590Z,97957.18
2018-10-03T03:21:13.229Z,97947.55
2018-10-03T03:23:40.863Z,97944.27
2018-10-03T03:26:08.488Z,97955.84
2018-10-03T03:28:36.145Z,97954.44
2018-10-03T03:31:03.769Z,97951.28
2018-10-03T03:33:31.411Z,97955.30
2018-10-03T03:35:59.082Z,97960.67
2018-10-03T03:38:26.782Z,97967.38
2018-10-03T03:40:54.418Z,97966.27
2018-10-03T03:43:22.058Z,97968.45
2018-10-03T03:45:49.710Z,97971.94
2018-10-03T03:48:17.330Z,97978.65
2018-10-03T03:50:44.957Z,97979.75
2018-10-03T03:53:12.629Z,97975.72
2018-10-03T03:55:40.257Z,97974.92
2018-10-03T03:58:07.885Z,97969.31
2018-10-03T04:00:35.516Z,97975.96
2018-10-03T04:03:03.151Z,97973.87
2018-10-03T04:05:30.789Z,97980.52
2018-10-03T04:07:58.422Z,97975.16
2018-10-03T04:10:26.090Z,97966.63
2018-10-03T04:12:53.717Z,97964.72
2018-10-03T04:15:21.429Z,97962.84
2018-10-03T04:17:49.056Z,97961.80
2018-10-03T04:20:16.713Z,97972.77
2018-10-03T04:22:44.329Z,97960.22
2018-10-03T04:25:11.948Z,97960.99
2018-10-03T04:27:39.597Z,97964.72
2018-10-03T04:30:07.229Z,97973.63
2018-10-03T04:32:34.853Z,97982.16
2018-10-03T04:35:02.470Z,97980.34
2018-10-03T04:37:30.100Z,97980.34
2018-10-03T04:39:57.733Z,97982.44
2018-10-03T04:42:25.371Z,97978.70
2018-10-03T04:44:53.026Z,97980.05
2018-10-03T04:47:20.650Z,97983.86
2018-10-03T04:49:48.377Z,97986.53
2018-10-03T04:52:16.001Z,97987.05
2018-10-03T04:54:43.621Z,97984.09
2018-10-03T04:57:11.279Z,97975.52
2018-10-03T04:59:38.902Z,97983.05
2018-10-03T05:02:06.538Z,97989.76
2018-10-03T05:04:34.174Z,97993.19
2018-10-03T05:07:01.874Z,97995.13
2018-10-03T05:09:29.461Z,98003.17
2018-10-03T05:11:57.096Z,98001.05
2018-10-03T05:14:24.749Z,98009.88
2018-10-03T05:16:52.372Z,98021.13
2018-10-03T05:19:20.009Z,98017.34
2018-10-03T05:21:47.634Z,98017.91
2018-10-03T05:24:15.273Z,98013.31
2018-10-03T05:26:42.931Z,98011.73
2018-10-03T05:29:10.566Z,98025.15
2018-10-03T05:31:38.297Z,98035.34
2018-10-03T05:34:05.979Z,98025.15
2018-10-03T05:36:33.613Z,98025.95
2018-10-03T05:39:01.245Z,98018.39
2018-10-03T05:41:28.877Z,98028.07
2018-10-03T05:43:56.527Z,98023.27
2018-10-03T05:46:24.177Z,98033.73
2018-10-03T05:48:51.860Z,98035.64
2018-10-03T05:51:19.489Z,98034.30
2018-10-03T05:53:47.109Z,98045.03
2018-10-03T05:56:14.861Z,98050.40
2018-10-03T05:58:42.498Z,98049.83
2018-10-03T06:01:10.146Z,98050.13
2018-10-03T06:03:37.784Z,98043.69
2018-10-03T06:06:05.772Z,98040.20
2018-10-03T06:08:33.416Z,98043.42
2018-10-03T06:11:01.058Z,98042.37
2018-10-03T06:13:28.739Z,98045.86
2018-10-03T06:15:56.406Z,98047.20
2018-10-03T06:18:24.121Z,98045.91
2018-10-03T06:20:51.764Z,98048.30
2018-10-03T06:23:19.395Z,98047.73
2018-10-03T06:25:47.016Z,98054.45
2018-10-03T06:28:14.683Z,98054.45
2018-10-03T06:30:42.355Z,98051.52
2018-10-03T06:33:09.990Z,98054.73
2018-10-03T06:35:37.638Z,98059.86
2018-10-03T06:38:05.289Z,98065.17
2018-10-03T06:40:33.029Z,98072.47
2018-10-03T06:43:00.621Z,98080.52
2018-10-03T06:45:28.280Z,98084.84
2018-10-03T06:47:55.962Z,98087.50
2018-10-03T06:50:23.605Z,98081.03
2018-10-03T06:52:51.297Z,98077.06
2018-10-03T06:55:18.924Z,98086.94
2018-10-03T06:57:46.556Z,98087.45
2018-10-03T07:00:14.187Z,98085.30
2018-10-03T07:02:41.820Z,98095.80
2018-10-03T07:05:09.456Z,98093.35
2018-10-03T07:07:37.095Z,98097.94
2018-10-03T07:10:04.937Z,98098.23
2018-10-03T07:12:32.565Z,98098.23
2018-10-03T07:15:00.202Z,98097.67
2018-10-03T07:17:27.833Z,98097.96
2018-10-03T07:19:55.469Z,98094.74
2018-10-03T07:22:23.106Z,98104.67
2018-10-03T07:24:50.739Z,98107.62
2018-10-03T07:27:18.493Z,98101.69
2018-10-03T07:29:46.144Z,98111.89
2018-10-03T07:32:13.865Z,98111.89
2018-10-03T07:34:41.525Z,98119.41
2018-10-03T07:37:09.155Z,98116.45
2018-10-03T07:39:36.790Z,98111.59
2018-10-03T07:42:04.422Z,98110.80
2018-10-03T07:44:32.082Z,98119.94
2018-10-03T07:46:59.719Z,98120.18
2018-10-03T07:49:27.342Z,98120.75
2018-10-03T07:51:55.005Z,98119.11
2018-10-03T07:54:22.642Z,98118.55
2018-10-03T07:56:50.491Z,98119.65
2018-10-03T07:59:18.150Z,98121.52
2018-10-03T08:01:45.785Z,98127.94
2018-10-03T08:04:13.411Z,98131.72
2018-10-03T08:06:41.042Z,98142.70
2018-10-03T08:09:09.592Z,98138.67
2018-10-03T08:11:37.324Z,98140.82
2018-10-03T08:14:04.966Z,98146.72
2018-10-03T08:16:32.672Z,98149.16
2018-10-03T08:19:00.352Z,98158.02
2018-10-03T08:21:27.975Z,98150.45
2018-10-03T08:23:55.620Z,98147.53
2018-10-03T08:26:23.257Z,98144.80
2018-10-03T08:28:50.914Z,98150.44
2018-10-03T08:31:18.543Z,98144.19
2018-10-03T08:33:46.205Z,98135.63
2018-10-03T08:36:13.825Z,98147.88
2018-10-03T08:38:41.458Z,98141.34
2018-10-03T08:41:09.128Z,98146.95
2018-10-03T08:43:36.745Z,98147.75
2018-10-03T08:46:04.413Z,98138.95
2018-10-03T08:48:32.028Z,98144.50
2018-10-03T08:50:59.676Z,98143.09
2018-10-03T08:53:27.305Z,98143.26
2018-10-03T08:55:54.925Z,98142.08
2018-10-03T08:58:22.721Z,98155.87
2018-10-03T09:00:50.301Z,98155.98
2018-10-03T09:03:17.997Z,98155.70
2018-10-03T09:05:45.582Z,98151.90
2018-10-03T09:08:14.641Z,98159.07
2018-10-03T09:10:43.821Z,98152.58
2018-10-03T09:13:12.191Z,98163.73
2018-10-03T09:15:39.837Z,98168.25
2018-10-03T09:18:07.602Z,98164.56
2018-10-03T09:20:35.513Z,98170.52
2018-10-03T09:23:03.258Z,98179.09
2018-10-03T09:25:30.905Z,98168.05
2018-10-03T09:27:58.540Z,98170.91
2018-10-03T09:30:26.198Z,98160.75
2018-10-03T09:32:53.821Z,98152.94
2018-10-03T09:35:21.553Z,98159.00
2018-10-03T09:37:49.293Z,98150.95
2018-10-03T09:40:16.928Z,98153.09
2018-10-03T09:42:44.598Z,98163.38
2018-10-03T09:45:12.639Z,98152.34
2018-10-03T09:47:40.785Z,98154.73
2018-10-03T09:50:09.284Z,98153.98
2018-10-03T09:52:36.986Z,98153.58
2018-10-03T09:55:04.624Z,98146.33
2018-10-03T09:57:32.236Z,98153.83
2018-10-03T09:59:59.928Z,98146.09
2018-10-03T10:02:27.606Z,98137.71
2018-10-03T10:04:55.240Z,98148.48
2018-10-03T10:07:22.874Z,98152.29
2018-10-03T10:09:50.976Z,98152.29
2018-10-03T10:12:18.606Z,98152.94
2018-10-03T10:14:46.234Z,98156.96
2018-10-03T10:17:13.903Z,98162.55
2018-10-03T10:19:41.590Z,98164.42
2018-10-03T10:22:09.213Z,98171.95
2018-10-03T10:24:36.842Z,98174.92
2018-10-03T10:27:04.494Z,98173.88
2018-10-03T10:29:32.270Z,98173.61
2018-10-03T10:31:59.907Z,98171.25
2018-10-03T10:34:27.622Z,98168.56
2018-10-03T10:36:55.273Z,98169.34
2018-10-03T10:39:22.901Z,98174.17
2018-10-03T10:41:50.600Z,98174.70
2018-10-03T10:44:18.254Z,98176.86
2018-10-03T10:46:45.939Z,98181.42
2018-10-03T10:49:13.540Z,98184.67
2018-10-03T10:51:41.227Z,98193.55
2018-10-03T10:54:08.850Z,98199.46
2018-10-03T10:56:36.494Z,98207.27
2018-10-03T10:59:04.195Z,98203.25
2018-10-03T11:01:31.837Z,98195.73
2018-10-03T11:03:59.473Z,98201.61
2018-10-03T11:06:27.121Z,98198.92
2018-10-03T11:08:54.884Z,98194.90
2018-10-03T11:11:22.536Z,98194.36
2018-10-03T11:13:50.166Z,98194.09
2018-10-03T11:16:17.802Z,98198.69
2018-10-03T11:18:45.455Z,98201.91
2018-10-03T11:21:13.114Z,98205.40
2018-10-03T11:23:40.821Z,98193.04
2018-10-03T11:26:08.404Z,98196.83
2018-10-03T11:28:36.028Z,98208.38
2018-10-03T11:31:03.664Z,98207.86
2018-10-03T11:33:31.317Z,98205.70
2018-10-03T11:35:58.975Z,98200.91
2018-10-03T11:38:26.585Z,98206.52
2018-10-03T11:40:54.205Z,98214.28
2018-10-03T11:43:21.835Z,98215.57
2018-10-03T11:45:49.490Z,98208.67
2018-10-03T11:48:17.617Z,98210.20
2018-10-03T11:50:47.698Z,98209.67
2018-10-03T11:53:15.429Z,98210.47
2018-10-03T11:55:43.141Z,98216.09
2018-10-03T11:58:10.771Z,98211.06
2018-10-03T12:00:38.457Z,98205.13
2018-10-03T12:03:06.182Z,98208.10
2018-10-03T12:05:33.806Z,98202.20
2018-10-03T12:08:03.026Z,98205.94
2018-10-03T12:10:30.672Z,98205.69
2018-10-03T12:12:58.306Z,98211.55
2018-10-03T12:15:25.949Z,98220.16
2018-10-03T12:17:53.572Z,98216.38
2018-10-03T12:20:21.235Z,98203.77
2018-10-03T12:22:48.873Z,98211.81
2018-10-03T12:25:16.593Z,98207.79
2018-10-03T12:27:44.273Z,98207.52
2018-10-03T12:30:12.017Z,98200.03
2018-10-03T12:32:39.654Z,98190.34
2018-10-03T12:35:07.312Z,98188.19
2018-10-03T12:37:34.944Z,98198.88
2018-10-03T12:40:02.869Z,98204.19
2018-10-03T12:42:30.491Z,98201.80
2018-10-03T12:44:58.213Z,98202.08
2018-10-03T12:47:26.177Z,98202.31
2018-10-03T12:49:54.476Z,98199.09
2018-10-03T12:52:22.142Z,98199.88
2018-10-03T12:54:49.840Z,98198.80
2018-10-03T12:57:17.560Z,98205.22
2018-10-03T12:59:45.190Z,98192.03
2018-10-03T13:02:12.823Z,98191.45
2018-10-03T13:04:40.440Z,98188.77
2018-10-03T13:07:08.101Z,98185.00
2018-10-03T13:09:35.741Z,98187.69
2018-10-03T13:12:03.489Z,98181.53
2018-10-03T13:14:31.137Z,98179.36
2018-10-03T13:16:58.780Z,98176.97
2018-10-03T13:19:26.396Z,98191.72
2018-10-03T13:21:54.025Z,98197.31
2018-10-03T13:24:21.738Z,98186.81
2018-10-03T13:26:49.346Z,98184.93
2018-10-03T13:29:16.997Z,98184.93
2018-10-03T13:31:44.638Z,98190.54
2018-10-03T13:34:12.286Z,98196.13
2018-10-03T13:36:39.904Z,98201.55
2018-10-03T13:39:07.917Z,98201.55
2018-10-03T13:41:35.585Z,98202.09
2018-10-03T13:44:03.193Z,98205.83
2018-10-03T13:46:30.886Z,98201.55
2018-10-03T13:48:58.521Z,98201.50
2018-10-03T13:51:26.164Z,98200.99
2018-10-03T13:53:53.797Z,98198.81
2018-10-03T13:56:21.416Z,98192.10
2018-10-03T13:58:49.045Z,98186.22
2018-10-03T14:01:16.681Z,98186.44
2018-10-03T14:03:44.322Z,98187.02
2018-10-03T14:08:45.851Z,98195.14
2018-10-03T14:11:13.505Z,98186.48
2018-10-03T14:13:41.120Z,98187.56
2018-10-03T14:16:08.764Z,98178.43
2018-10-03T14:18:36.405Z,98179.27
2018-10-03T14:21:04.052Z,98178.97
2018-10-03T14:23:31.710Z,98179.48
2018-10-03T14:25:59.366Z,98179.80
2018-10-03T14:28:27.013Z,98184.88
2018-10-03T14:30:54.674Z,98191.30
2018-10-03T14:33:22.380Z,98190.22
2018-10-03T14:35:49.999Z,98190.22
2018-10-03T14:38:17.625Z,98189.71
2018-10-03T14:40:45.240Z,98200.99
2018-10-03T14:43:12.965Z,98199.92
2018-10-03T14:45:40.590Z,98194.03
2018-10-03T14:48:08.271Z,98196.19
2018-10-03T14:50:35.888Z,98200.99
2018-10-03T14:53:03.529Z,98207.98
2018-10-03T14:55:31.169Z,98206.93
2018-10-03T14:57:58.793Z,98210.95
2018-10-03T15:00:26.457Z,98215.74
2018-10-03T15:02:54.081Z,98209.32
2018-10-03T15:05:21.729Z,98208.22
2018-10-03T15:07:49.382Z,98209.32
2018-10-03T15:10:17.008Z,98216.03
2018-10-03T15:12:44.729Z,98216.03
2018-10-03T15:15:12.373Z,98219.26
2018-10-03T15:17:40.061Z,98215.77
2018-10-03T15:20:07.685Z,98216.57
2018-10-03T15:22:35.325Z,98213.08
2018-10-03T15:25:02.960Z,98218.74
2018-10-03T15:27:30.597Z,98224.68
2018-10-03T15:29:58.355Z,98220.89
2018-10-03T15:32:25.881Z,98221.72
2018-10-03T15:34:53.551Z,98219.03
2018-10-03T15:37:21.180Z,98219.84
2018-10-03T15:39:48.819Z,98217.45
2018-10-03T15:42:16.527Z,98220.95
2018-10-03T15:44:44.212Z,98224.46
2018-10-03T15:47:11.868Z,98228.20
2018-10-03T15:49:39.515Z,98221.24
2018-10-03T15:52:07.388Z,98230.37
2018-10-03T15:54:35.082Z,98230.13
2018-10-03T15:57:02.721Z,98232.81
2018-10-03T15:59:30.360Z,98240.87
2018-10-03T16:01:57.980Z,98239.03
2018-10-03T16:04:25.622Z,98244.70
2018-10-03T16:06:53.246Z,98246.33
2018-10-03T16:09:20.872Z,98248.48
2018-10-03T16:11:48.544Z,98255.44
2018-10-03T16:14:16.170Z,98252.45
2018-10-03T16:16:43.814Z,98256.54
2018-10-03T16:19:11.457Z,98256.83
2018-10-03T16:21:39.343Z,98262.20
2018-10-03T16:24:07.118Z,98255.48
2018-10-03T16:26:34.786Z,98261.15
2018-10-03T16:29:02.455Z,98263.84
2018-10-03T16:31:30.077Z,98264.66
2018-10-03T16:33:57.714Z,98270.84
2018-10-03T16:36:25.368Z,98268.98
2018-10-03T16:38:53.134Z,98270.08
2018-10-03T16:41:20.696Z,98268.16
2018-10-03T16:43:48.320Z,98278.09
2018-10-03T16:46:15.986Z,98270.89
2018-10-03T16:48:43.640Z,98276.21
2018-10-03T16:51:11.275Z,98279.72
2018-10-03T16:53:38.908Z,98279.14
2018-10-03T16:56:06.575Z,98287.73
2018-10-03T16:58:34.213Z,98285.38
2018-10-03T17:01:01.966Z,98292.38
2018-10-03T17:03:29.624Z,98293.72
2018-10-03T17:05:57.237Z,98307.09
2018-10-03T17:08:24.861Z,98309.53
2018-10-03T17:10:52.493Z,98310.55
2018-10-03T17:13:20.112Z,98316.20
2018-10-03T17:15:47.804Z,98322.34
2018-10-03T17:18:15.438Z,98322.05
2018-10-03T17:20:43.074Z,98324.50
2018-10-03T17:23:10.703Z,98325.59
2018-10-03T17:25:38.566Z,98339.27
2018-10-03T17:28:06.181Z,98340.56
2018-10-03T17:30:33.856Z,98347.56
2018-10-03T17:33:01.490Z,98348.91
2018-10-03T17:35:29.117Z,98356.72
2018-10-03T17:37:56.746Z,98349.77
2018-10-03T17:40:24.369Z,98352.70
2018-10-03T17:42:52.082Z,98349.77
2018-10-03T17:45:19.713Z,98356.48
2018-10-03T17:47:47.333Z,98358.06
2018-10-03T17:50:14.960Z,98362.09
2018-10-03T17:52:42.602Z,98363.73
2018-10-03T17:55:10.229Z,98363.48
2018-10-03T17:57:37.859Z,98363.44
2018-10-03T18:00:05.866Z,98369.14
2018-10-03T18:02:33.502Z,98374.52
2018-10-03T18:05:01.154Z,98378.30
2018-10-03T18:07:28.792Z,98379.08
2018-10-03T18:09:56.420Z,98379.36
2018-10-03T18:12:24.055Z,98385.83
2018-10-03T18:14:51.686Z,98383.38
2018-10-03T18:17:19.317Z,98384.20
2018-10-03T18:19:46.960Z,98388.77
2018-10-03T18:22:14.648Z,98396.23
2018-10-03T18:24:42.273Z,98389.34
2018-10-03T18:27:09.909Z,98397.95
2018-10-03T18:29:37.534Z,98408.66
2018-10-03T18:32:05.145Z,98408.41
2018-10-03T18:34:32.781Z,98414.31
2018-10-03T18:37:00.425Z,98415.37
2018-10-03T18:39:28.097Z,98411.92
2018-10-03T18:41:55.677Z,98410.81
2018-10-03T18:44:23.302Z,98408.70
2018-10-03T18:46:50.982Z,98412.69
2018-10-03T18:49:18.621Z,98411.09
2018-10-03T18:51:46.275Z,98415.95
2018-10-03T18:54:13.959Z,98417.05
2018-10-03T18:56:41.589Z,98422.41
2018-10-03T18:59:09.265Z,98418.63
2018-10-03T19:01:36.900Z,98421.02
2018-10-03T19:04:04.540Z,98426.69
2018-10-03T19:06:32.219Z,98443.89
2018-10-03T19:08:59.926Z,98448.98
2018-10-03T19:11:27.558Z,98445.00
2018-10-03T19:13:55.183Z,98454.35
2018-10-03T19:16:22.804Z,98455.41
2018-10-03T19:18:50.436Z,98455.97
2018-10-03T19:21:18.057Z,98451.95
2018-10-03T19:23:45.710Z,98461.11
2018-10-03T19:26:13.392Z,98458.95
2018-10-03T19:28:41.026Z,98460.82
2018-10-03T19:31:08.696Z,98462.97
2018-10-03T19:33:36.333Z,98462.70
2018-10-03T19:36:03.944Z,98469.69
2018-10-03T19:38:31.569Z,98477.17
2018-10-03T19:40:59.184Z,98478.02
2018-10-03T19:43:26.867Z,98469.69
2018-10-03T19:45:54.540Z,98473.44
2018-10-03T19:48:22.352Z,98471.03
2018-10-03T19:50:49.924Z,98473.71
2018-10-03T19:53:21.778Z,98466.19
2018-10-03T19:55:49.433Z,98466.44
2018-10-03T19:58:17.063Z,98466.72
2018-10-03T20:00:45.215Z,98471.03
2018-10-03T20:03:12.904Z,98468.59
2018-10-03T20:05:40.547Z,98457.84
2018-10-03T20:08:08.197Z,98461.91
2018-10-03T20:10:35.860Z,98464.36
2018-10-03T20:13:03.510Z,98468.92
2018-10-03T20:15:31.193Z,98469.73
2018-10-03T20:17:58.824Z,98467.01
2018-10-03T20:20:26.453Z,98472.94
2018-10-03T20:22:54.082Z,98473.23
2018-10-03T20:25:21.714Z,98472.12
2018-10-03T20:27:49.368Z,98471.32
2018-10-03T20:30:17.001Z,98480.99
2018-10-03T20:32:44.628Z,98475.91
2018-10-03T20:35:12.268Z,98474.29
2018-10-03T20:37:39.909Z,98476.97
2018-10-03T20:40:07.558Z,98471.88
2018-10-03T20:42:35.185Z,98477.25
2018-10-03T20:45:02.843Z,98476.69
2018-10-03T20:47:30.468Z,98475.63
2018-10-03T20:49:58.096Z,98492.30
2018-10-03T20:52:25.729Z,98474.85
2018-10-03T20:54:53.370Z,98478.36
2018-10-03T20:57:21.012Z,98483.44
2018-10-03T20:59:48.638Z,98477.54
2018-10-03T21:02:16.280Z,98476.48
2018-10-03T21:04:43.913Z,98479.41
2018-10-03T21:07:11.539Z,98470.30
2018-10-03T21:09:39.183Z,98472.17
2018-10-03T21:12:06.806Z,98469.77
2018-10-03T21:14:34.480Z,98471.64
2018-10-03T21:17:02.109Z,98473.80
2018-10-03T21:19:29.743Z,98471.11
2018-10-03T21:21:57.360Z,98472.17
2018-10-03T21:24:25.003Z,98479.70
2018-10-03T21:26:52.644Z,98484.55
2018-10-03T21:29:20.261Z,98488.03
2018-10-03T21:31:47.903Z,98475.95
2018-10-03T21:34:15.546Z,98478.11
2018-10-03T21:36:43.186Z,98473.27
2018-10-03T21:39:10.806Z,98471.93
2018-10-03T21:41:38.428Z,98470.83
2018-10-03T21:44:06.073Z,98471.13
2018-10-03T21:46:33.719Z,98477.30
2018-10-03T21:49:01.345Z,98482.95
2018-10-03T21:51:28.967Z,98486.45
2018-10-03T21:53:56.592Z,98486.17
2018-10-03T21:56:24.241Z,98485.96
2018-10-03T21:58:51.866Z,98488.36
2018-10-03T22:01:19.518Z,98484.83
2018-10-03T22:03:47.148Z,98481.61
2018-10-03T22:06:14.775Z,98485.92
2018-10-03T22:08:42.418Z,98482.99
2018-10-03T22:11:10.054Z,98477.63
2018-10-03T22:13:37.687Z,98476.28
2018-10-03T22:16:05.339Z,98481.66
2018-10-03T22:18:32.999Z,98484.87
2018-10-03T22:21:00.650Z,98485.40
2018-10-03T22:23:28.276Z,98480.31
2018-10-03T22:25:55.901Z,98483.81
2018-10-03T22:28:23.535Z,98488.08
2018-10-03T22:30:51.366Z,98482.99
2018-10-03T22:33:18.992Z,98480.03
2018-10-03T22:35:46.633Z,98477.38
2018-10-03T22:38:14.269Z,98476.08
2018-10-03T22:40:41.904Z,98476.08
2018-10-03T22:43:09.532Z,98483.00
2018-10-03T22:45:37.161Z,98483.81
2018-10-03T22:48:04.801Z,98485.97
2018-10-03T22:50:32.425Z,98476.33
2018-10-03T22:53:00.096Z,98485.72
2018-10-03T22:55:27.721Z,98487.06
2018-10-03T22:57:55.366Z,98487.31
2018-10-03T23:00:23.003Z,98490.80
2018-10-03T23:02:50.647Z,98492.19
2018-10-03T23:05:18.290Z,98490.84
2018-10-03T23:07:45.929Z,98491.09
2018-10-03T23:10:13.577Z,98492.67
2018-10-03T23:12:41.261Z,98494.63
2018-10-03T23:15:08.893Z,98495.96
2018-10-03T23:17:36.521Z,98488.20
2018-10-03T23:20:04.179Z,98489.25
2018-10-03T23:22:31.942Z,98493.52
2018-10-03T23:24:59.562Z,98490.31
2018-10-03T23:27:27.238Z,98491.94
2018-10-03T23:29:54.874Z,98488.97
2018-10-03T23:32:22.576Z,98489.25
2018-10-03T23:34:50.210Z,98486.33
2018-10-03T23:37:17.837Z,98495.44
2018-10-03T23:39:45.465Z,98498.16
2018-10-03T23:42:13.118Z,98503.23
2018-10-03T23:44:40.783Z,98508.86
2018-10-03T23:47:08.425Z,98509.67
2018-10-03T23:49:36.062Z,98516.94
2018-10-03T23:52:03.706Z,98517.72
2018-10-03T23:54:31.406Z,98525.53
2018-10-03T23:56:59.039Z,98521.50
2018-10-03T23:59:26.673Z,98524.15
